Time;durP1;ratioP1;P1;durP2;ratioP2;P2;SDS_P1;SDS_P2;PMS_P1;PMS_P2;Temp;Humidity;BMP_temperature;BMP_pressure;BME280_temperature;BME280_humidity;BME280_pressure;Samples;Min_cycle;Max_cycle;Signal;HPM_P1;HPM_P2
2022/07/26 00:01:00;;;;;;;10.10;7.40;;;;;;;20.38;60.77;99832.39;103519;1277;99443;-68
2022/07/26 00:03:28;;;;;;;9.70;7.80;;;;;;;20.32;61.00;99830.52;103444;1276;137979;-68
2022/07/26 00:06:32;;;;;;;10.80;8.00;;;;;;;20.25;61.26;99825.77;103474;1276;94771;-67
2022/07/26 00:09:01;;;;;;;10.70;7.60;;;;;;;20.21;61.40;99823.58;103580;1277;138367;-66
2022/07/26 00:11:32;;;;;;;11.10;7.90;;;;;;;20.20;61.48;99812.83;103571;1277;108461;-68
2022/07/26 00:14:02;;;;;;;10.30;8.20;;;;;;;20.21;61.60;99801.77;103531;1277;138672;-66
2022/07/26 00:16:31;;;;;;;12.00;8.60;;;;;;;20.19;61.54;99800.49;103629;1277;108774;-66
2022/07/26 00:18:59;;;;;;;12.40;8.20;;;;;;;20.18;61.50;99805.11;103584;1276;97028;-68
2022/07/26 00:21:29;;;;;;;13.10;8.00;;;;;;;20.12;61.80;99803.05;103486;1276;138708;-68
2022/07/26 00:23:57;;;;;;;11.50;7.80;;;;;;;20.06;62.11;99795.89;103605;1277;108605;-68
2022/07/26 00:26:26;;;;;;;11.40;7.80;;;;;;;20.03;62.11;99799.52;103391;1277;138526;-69
2022/07/26 00:28:54;;;;;;;12.40;8.10;;;;;;;20.00;62.13;99802.08;103556;1276;108858;-69
2022/07/26 00:31:22;;;;;;;11.90;8.70;;;;;;;20.05;62.35;99800.81;103528;1276;94458;-68
2022/07/26 00:33:50;;;;;;;12.40;8.20;;;;;;;20.05;62.30;99794.28;103387;1277;139204;-68
2022/07/26 00:36:18;;;;;;;12.60;8.50;;;;;;;20.02;62.49;99789.66;103540;1277;108352;-67
2022/07/26 00:38:46;;;;;;;12.30;8.70;;;;;;;19.99;62.43;99792.79;103380;1275;138791;-68
2022/07/26 00:41:14;;;;;;;10.80;8.00;;;;;;;19.98;62.50;99795.54;103567;1277;107837;-68
2022/07/26 00:43:53;;;;;;;11.90;8.10;;;;;;;19.96;62.53;99789.05;103505;1277;94822;-68
2022/07/26 00:46:22;;;;;;;12.00;7.90;;;;;;;19.95;62.78;99782.69;103711;1277;94989;-68
2022/07/26 00:48:50;;;;;;;12.50;8.50;;;;;;;19.95;62.55;99783.20;103450;1277;332556;-68
2022/07/26 00:51:19;;;;;;;10.80;8.50;;;;;;;19.88;62.83;99776.17;103548;1276;138247;-67
2022/07/26 00:53:48;;;;;;;11.40;7.90;;;;;;;19.84;62.75;99775.20;103621;1276;108794;-66
2022/07/26 00:56:17;;;;;;;11.60;7.70;;;;;;;19.82;63.01;99776.38;103579;1275;139087;-68
2022/07/26 00:58:45;;;;;;;11.30;8.40;;;;;;;19.83;62.93;99775.64;103720;1277;94497;-69
2022/07/26 01:01:13;;;;;;;11.60;8.40;;;;;;;19.78;62.96;99776.70;104217;1277;108612;-69
2022/07/26 01:03:41;;;;;;;10.40;7.90;;;;;;;19.73;63.26;99770.59;103419;1275;139249;-68
2022/07/26 01:06:10;;;;;;;10.00;7.90;;;;;;;19.68;63.18;99768.39;103536;1277;108484;-67
2022/07/26 01:08:38;;;;;;;12.50;8.20;;;;;;;19.66;63.39;99766.41;103869;1276;138814;-68
2022/07/26 01:11:06;;;;;;;10.90;8.10;;;;;;;19.65;63.39;99761.43;103570;1277;94315;-68
2022/07/26 01:13:34;;;;;;;11.20;8.10;;;;;;;19.64;63.51;99755.56;103463;1276;107439;-68
2022/07/26 01:16:02;;;;;;;11.10;7.50;;;;;;;19.64;63.73;99757.53;103409;1277;138990;-68
2022/07/26 01:18:31;;;;;;;9.60;7.20;;;;;;;19.65;63.91;99753.16;103567;1277;108757;-68
2022/07/26 01:21:02;;;;;;;11.60;7.50;;;;;;;19.64;63.77;99754.85;103359;1276;138717;-68
2022/07/26 01:23:42;;;;;;;11.40;8.00;;;;;;;19.64;63.63;99753.26;103597;1276;95519;-68
2022/07/26 01:26:11;;;;;;;12.10;8.60;;;;;;;19.61;63.56;99757.08;103586;1277;138140;-68
2022/07/26 01:28:41;;;;;;;10.00;7.60;;;;;;;19.62;63.69;99756.11;103509;1277;99763;-67
2022/07/26 01:31:09;;;;;;;15.90;7.50;;;;;;;19.56;63.58;99753.59;103682;1277;108894;-68
2022/07/26 01:33:37;;;;;;;11.00;7.60;;;;;;;19.51;63.69;99754.91;103805;1277;138648;-67
2022/07/26 01:36:06;;;;;;;9.90;7.70;;;;;;;19.54;63.82;99760.08;103543;1277;94602;-67
2022/07/26 01:38:34;;;;;;;10.60;8.00;;;;;;;19.54;63.67;99762.44;103862;1275;137707;-67
2022/07/26 01:41:02;;;;;;;11.30;7.70;;;;;;;19.48;63.80;99759.96;103549;1277;99479;-68
2022/07/26 01:43:30;;;;;;;10.30;7.90;;;;;;;19.44;63.85;99757.60;103511;1276;108894;-67
2022/07/26 01:45:58;;;;;;;9.90;7.50;;;;;;;19.39;64.24;99755.09;103481;1275;139951;-67
2022/07/26 01:48:27;;;;;;;10.10;7.50;;;;;;;19.34;64.29;99751.46;103555;1277;94325;-67
2022/07/26 01:50:56;;;;;;;11.30;7.50;;;;;;;19.33;64.43;99752.58;103787;1275;138326;-68
2022/07/26 01:53:25;;;;;;;11.00;7.30;;;;;;;19.35;64.43;99757.90;103549;1277;100057;-68
2022/07/26 01:55:52;;;;;;;10.90;7.30;;;;;;;19.43;64.18;99759.06;103378;1278;139327;-67
2022/07/26 01:58:21;;;;;;;11.30;7.00;;;;;;;19.51;64.00;99755.46;103462;1277;94344;-68
2022/07/26 02:00:49;;;;;;;10.00;7.50;;;;;;;19.52;64.11;99757.51;103540;1278;94341;-68
2022/07/26 02:03:17;;;;;;;10.20;7.30;;;;;;;19.44;64.39;99751.27;103417;1278;138858;-68
2022/07/26 02:05:45;;;;;;;9.10;6.90;;;;;;;19.41;64.57;99748.27;103472;1277;99308;-68
2022/07/26 02:08:13;;;;;;;9.70;7.00;;;;;;;19.40;64.49;99739.83;103432;1276;138378;-66
2022/07/26 02:11:00;;;;;;;10.50;7.10;;;;;;;19.31;64.62;99733.85;103968;1277;94853;-68
2022/07/26 02:13:32;;;;;;;11.10;7.30;;;;;;;19.24;64.71;99729.50;103547;1277;95598;-68
2022/07/26 02:16:03;;;;;;;9.90;7.10;;;;;;;19.29;64.68;99730.39;103357;1277;138251;-68
2022/07/26 02:18:31;;;;;;;9.30;6.30;;;;;;;19.34;64.81;99731.10;103529;1278;99334;-66
2022/07/26 02:21:01;;;;;;;10.00;6.70;;;;;;;19.34;64.60;99727.88;103687;1277;138774;-68
2022/07/26 02:23:29;;;;;;;10.20;6.90;;;;;;;19.31;64.60;99726.45;103563;1275;94465;-68
2022/07/26 02:25:57;;;;;;;9.60;7.10;;;;;;;19.22;64.82;99724.08;103480;1277;138675;-68
2022/07/26 02:28:27;;;;;;;9.50;6.80;;;;;;;19.16;65.06;99725.73;103617;1276;107339;-68
2022/07/26 02:30:55;;;;;;;9.20;6.30;;;;;;;19.12;65.18;99723.55;103662;1275;99468;-68
2022/07/26 02:33:23;;;;;;;10.00;6.70;;;;;;;19.11;65.34;99724.54;103386;1274;138938;-68
2022/07/26 02:35:51;;;;;;;8.60;6.60;;;;;;;19.12;65.20;99723.77;103535;1277;94880;-68
2022/07/26 02:38:19;;;;;;;9.40;6.50;;;;;;;19.08;65.28;99716.27;103429;1277;138077;-68
2022/07/26 02:40:49;;;;;;;9.70;6.80;;;;;;;19.03;65.35;99712.00;103653;1277;108268;-68
2022/07/26 02:43:17;;;;;;;9.10;6.40;;;;;;;18.98;65.50;99709.05;103876;1277;100021;-67
2022/07/26 02:45:46;;;;;;;9.50;6.10;;;;;;;19.04;65.43;99708.30;103613;1277;138643;-69
2022/07/26 02:48:30;;;;;;;8.20;6.20;;;;;;;19.01;65.28;99705.27;103428;1278;94871;-68
2022/07/26 02:50:58;;;;;;;10.70;7.00;;;;;;;18.97;65.55;99699.81;103565;1278;137786;-68
2022/07/26 02:53:27;;;;;;;10.80;6.80;;;;;;;18.95;65.69;99697.20;103829;1277;108380;-67
2022/07/26 02:55:55;;;;;;;8.90;6.00;;;;;;;18.93;65.73;99689.45;103419;1277;139092;-68
2022/07/26 02:58:23;;;;;;;9.30;6.40;;;;;;;18.88;65.87;99684.06;103481;1277;108760;-67
2022/07/26 03:00:52;;;;;;;10.10;6.40;;;;;;;18.85;66.06;99678.49;103579;1278;94447;-67
2022/07/26 03:03:20;;;;;;;9.70;6.70;;;;;;;18.81;66.01;99680.06;103356;1277;140166;-68
2022/07/26 03:05:48;;;;;;;9.10;6.30;;;;;;;18.79;66.05;99677.36;103593;1277;108342;-68
2022/07/26 03:08:16;;;;;;;9.80;6.00;;;;;;;18.79;66.18;99678.96;103406;1276;138853;-68
2022/07/26 03:10:44;;;;;;;8.30;5.90;;;;;;;18.80;66.09;99678.52;103478;1277;109291;-68
2022/07/26 03:13:12;;;;;;;9.00;5.80;;;;;;;18.78;66.24;99681.69;103829;1277;94351;-68
2022/07/26 03:15:40;;;;;;;10.60;6.50;;;;;;;18.78;66.09;99683.89;103426;1277;138849;-68
2022/07/26 03:18:08;;;;;;;10.20;6.60;;;;;;;18.77;66.21;99685.58;103497;1277;108613;-67
2022/07/26 03:20:37;;;;;;;9.30;6.30;;;;;;;18.79;66.27;99681.67;103429;1274;141681;-67
2022/07/26 03:23:05;;;;;;;7.90;5.90;;;;;;;18.79;66.26;99680.39;103370;1277;108777;-67
2022/07/26 03:25:33;;;;;;;9.00;6.10;;;;;;;18.80;66.12;99682.09;103562;1275;94440;-67
2022/07/26 03:28:04;;;;;;;10.00;6.70;;;;;;;18.80;65.95;99687.87;103400;1277;141424;-68
2022/07/26 03:30:32;;;;;;;8.60;6.40;;;;;;;18.83;66.24;99692.50;103484;1277;107309;-71
2022/07/26 03:33:00;;;;;;;9.10;6.40;;;;;;;18.88;66.22;99692.14;103493;1277;138572;-68
2022/07/26 03:35:28;;;;;;;9.30;6.00;;;;;;;18.91;65.97;99690.02;103606;1277;109105;-68
2022/07/26 03:38:03;;;;;;;8.30;5.90;;;;;;;18.95;65.76;99691.86;103420;1277;138833;-68
2022/07/26 03:40:31;;;;;;;11.00;6.20;;;;;;;18.94;66.09;99693.92;103469;1277;94337;-69
2022/07/26 03:42:59;;;;;;;8.70;6.50;;;;;;;18.95;66.07;99689.91;103518;1277;108406;-68
2022/07/26 03:45:29;;;;;;;9.30;6.50;;;;;;;18.91;66.11;99684.76;103402;1277;138961;-68
2022/07/26 03:47:57;;;;;;;9.30;6.60;;;;;;;18.85;66.19;99676.13;103508;1277;108941;-67
2022/07/26 03:50:25;;;;;;;10.60;6.70;;;;;;;18.81;66.33;99667.61;103969;1277;139410;-68
2022/07/26 03:52:53;;;;;;;9.60;6.00;;;;;;;18.80;66.47;99665.02;103389;1277;95824;-68
2022/07/26 03:58:08;;;;;;;10.30;6.40;;;;;;;18.82;66.48;99665.21;103797;1276;138431;-68
2022/07/26 04:00:36;;;;;;;8.90;5.90;;;;;;;18.84;66.46;99664.88;103479;1275;108850;-68
2022/07/26 04:03:04;;;;;;;9.20;6.40;;;;;;;18.85;66.60;99662.80;103387;1277;138511;-68
2022/07/26 04:05:32;;;;;;;8.60;5.90;;;;;;;18.90;66.56;99654.10;103666;1277;95478;-69
2022/07/26 04:08:03;;;;;;;10.00;6.00;;;;;;;18.96;66.74;99650.60;103447;1275;139005;-69
2022/07/26 04:10:31;;;;;;;8.40;5.40;;;;;;;19.04;66.35;99649.07;103582;1275;99475;-69
2022/07/26 04:12:59;;;;;;;8.80;5.70;;;;;;;19.13;66.19;99649.00;103491;1277;109281;-69
2022/07/26 04:15:27;;;;;;;9.20;5.90;;;;;;;19.18;66.07;99643.17;103361;1277;138627;-68
2022/07/26 04:17:55;;;;;;;8.10;5.80;;;;;;;19.27;65.67;99647.38;103841;1275;95248;-69
2022/07/26 04:20:23;;;;;;;9.70;5.80;;;;;;;19.33;65.19;99641.33;103448;1275;139051;-68
2022/07/26 04:22:51;;;;;;;9.30;6.20;;;;;;;19.38;65.28;99638.84;103490;1277;99601;-68
2022/07/26 04:25:19;;;;;;;9.50;6.00;;;;;;;19.40;64.82;99643.52;103423;1277;109242;-67
2022/07/26 04:27:47;;;;;;;8.70;5.90;;;;;;;19.46;65.16;99642.59;103647;1277;138715;-70
2022/07/26 04:30:15;;;;;;;8.30;5.50;;;;;;;19.52;64.91;99635.82;103460;1276;94792;-69
2022/07/26 04:32:44;;;;;;;8.30;5.80;;;;;;;19.56;64.91;99632.11;103460;1277;138426;-68
2022/07/26 04:35:14;;;;;;;11.00;6.30;;;;;;;19.61;64.68;99630.13;103510;1276;99532;-68
2022/07/26 04:37:44;;;;;;;8.20;5.40;;;;;;;19.66;64.55;99632.78;103660;1275;109024;-68
2022/07/26 04:40:18;;;;;;;10.10;5.70;;;;;;;19.71;64.07;99634.52;103460;1277;94527;-69
2022/07/26 04:42:49;;;;;;;9.70;5.40;;;;;;;19.76;64.33;99640.50;103701;1277;94324;-68
2022/07/26 04:45:18;;;;;;;8.90;5.30;;;;;;;19.81;64.21;99642.64;103705;1274;138568;-68
2022/07/26 04:47:49;;;;;;;7.80;5.40;;;;;;;19.86;64.05;99633.95;103574;1277;98984;-69
2022/07/26 04:50:18;;;;;;;10.90;5.90;;;;;;;19.93;63.88;99632.56;103425;1277;137942;-69
2022/07/26 04:52:48;;;;;;;9.30;5.70;;;;;;;20.00;63.74;99635.21;103656;1277;94795;-68
2022/07/26 04:55:17;;;;;;;8.50;5.50;;;;;;;20.07;63.46;99630.54;103581;1277;94661;-69
2022/07/26 04:57:46;;;;;;;9.70;5.70;;;;;;;20.11;63.34;99638.02;103485;1277;138004;-68
2022/07/26 05:00:20;;;;;;;8.50;5.60;;;;;;;20.15;63.28;99640.38;103626;1277;98952;-69
2022/07/26 05:02:52;;;;;;;9.30;6.20;;;;;;;20.23;62.78;99636.92;103690;1274;138606;-70
2022/07/26 05:05:22;;;;;;;10.00;6.40;;;;;;;20.26;63.27;99622.23;103660;1277;94766;-67
2022/07/26 05:07:56;;;;;;;9.20;5.90;;;;;;;20.29;63.52;99620.36;103649;1275;138845;-68
2022/07/26 05:10:36;;;;;;;8.80;6.20;;;;;;;20.31;63.81;99619.81;103684;1274;108310;-68
2022/07/26 05:13:05;;;;;;;23.90;16.80;;;;;;;20.35;63.35;99618.39;103629;1277;98408;-68
2022/07/26 05:15:37;;;;;;;9.40;6.00;;;;;;;20.38;63.00;99617.96;103449;1277;138860;-68
2022/07/26 05:18:08;;;;;;;10.70;6.20;;;;;;;20.42;62.82;99616.66;103721;1275;94616;-68
2022/07/26 05:20:40;;;;;;;8.70;5.40;;;;;;;20.46;62.75;99616.10;103908;1277;138626;-68
2022/07/26 05:23:08;;;;;;;9.70;5.40;;;;;;;20.55;62.39;99618.81;103542;1276;109112;-70
2022/07/26 05:25:37;;;;;;;8.70;5.40;;;;;;;20.60;62.47;99612.65;103613;1277;99384;-69
2022/07/26 05:28:05;;;;;;;8.00;5.60;;;;;;;20.65;61.63;99610.61;103783;1277;138663;-69
2022/07/26 05:30:33;;;;;;;11.80;6.10;;;;;;;20.71;61.97;99603.83;103456;1275;94315;-70
2022/07/26 05:33:02;;;;;;;9.00;5.20;;;;;;;20.80;61.40;99604.61;103404;1276;138798;-70
2022/07/26 05:35:30;;;;;;;8.80;5.50;;;;;;;20.82;61.05;99603.13;103609;1277;108370;-69
2022/07/26 05:37:58;;;;;;;9.00;5.90;;;;;;;20.86;61.43;99601.20;103510;1277;138832;-69
2022/07/26 05:40:26;;;;;;;9.80;5.60;;;;;;;20.91;61.39;99593.42;103612;1277;108776;-69
2022/07/26 05:42:54;;;;;;;8.60;5.00;;;;;;;20.94;61.14;99585.94;103568;1277;94683;-69
2022/07/26 05:45:22;;;;;;;9.90;5.60;;;;;;;20.96;60.77;99592.46;103436;1277;138594;-67
2022/07/26 05:47:52;;;;;;;7.50;5.20;;;;;;;21.01;61.32;99594.15;103634;1277;108431;-67
2022/07/26 05:50:20;;;;;;;8.80;5.30;;;;;;;21.09;61.37;99600.98;103538;1277;138872;-68
2022/07/26 05:52:48;;;;;;;9.00;5.20;;;;;;;21.14;61.09;99601.98;103767;1276;108234;-68
2022/07/26 05:55:16;;;;;;;8.90;5.00;;;;;;;21.18;60.59;99601.79;103556;1277;94988;-68
2022/07/26 05:57:46;;;;;;;10.50;5.50;;;;;;;21.25;60.82;99606.30;103392;1276;139030;-69
2022/07/26 06:00:16;;;;;;;10.30;5.50;;;;;;;21.35;60.81;99603.64;103752;1277;108346;-69
2022/07/26 06:02:44;;;;;;;10.20;5.40;;;;;;;21.44;60.99;99602.16;103473;1276;138718;-68
2022/07/26 06:05:14;;;;;;;7.80;4.60;;;;;;;21.53;60.57;99600.92;103577;1277;108968;-68
2022/07/26 06:07:42;;;;;;;7.50;4.60;;;;;;;21.62;60.38;99599.08;103635;1277;95327;-70
2022/07/26 06:10:11;;;;;;;8.80;4.90;;;;;;;21.73;59.99;99593.24;103588;1277;95403;-69
2022/07/26 06:12:39;;;;;;;8.90;5.20;;;;;;;21.79;59.58;99589.44;103590;1277;110374;-69
2022/07/26 06:15:07;;;;;;;7.40;4.40;;;;;;;21.89;59.49;99582.65;103471;1276;139343;-69
2022/07/26 06:17:42;;;;;;;8.30;4.20;;;;;;;22.02;58.86;99584.80;103596;1277;109040;-69
2022/07/26 06:20:10;;;;;;;8.60;4.40;;;;;;;22.15;58.61;99582.52;103531;1277;139050;-70
2022/07/26 06:22:38;;;;;;;7.30;4.30;;;;;;;22.31;58.20;99578.42;103690;1277;96964;-70
2022/07/26 06:25:07;;;;;;;9.30;4.20;;;;;;;22.46;57.50;99577.55;103593;1277;109804;-70
2022/07/26 06:27:35;;;;;;;7.10;4.20;;;;;;;22.59;57.15;99576.94;103831;1275;138766;-68
2022/07/26 06:30:03;;;;;;;6.20;3.90;;;;;;;22.69;56.49;99576.95;103684;1277;107585;-69
2022/07/26 06:32:31;;;;;;;8.40;4.20;;;;;;;22.78;56.51;99574.70;103929;1277;138220;-69
2022/07/26 06:34:59;;;;;;;6.80;4.40;;;;;;;22.89;56.36;99572.76;103586;1276;95138;-69
2022/07/26 06:37:27;;;;;;;7.80;4.50;;;;;;;23.04;56.91;99571.64;103619;1276;109783;-69
2022/07/26 06:39:55;;;;;;;9.00;4.40;;;;;;;23.19;56.49;99569.27;103528;1277;138302;-69
2022/07/26 06:42:24;;;;;;;9.00;3.90;;;;;;;23.33;55.32;99571.83;103637;1277;109754;-70
2022/07/26 06:44:52;;;;;;;7.10;3.90;;;;;;;23.45;54.76;99566.02;103484;1276;138139;-70
2022/07/26 06:47:20;;;;;;;8.80;3.90;;;;;;;23.56;54.03;99563.35;103690;1276;95743;-69
2022/07/26 06:49:48;;;;;;;6.40;3.70;;;;;;;23.70;54.17;99565.50;103537;1276;138164;-69
2022/07/26 06:52:15;;;;;;;7.90;3.80;;;;;;;23.87;53.86;99568.08;102695;1277;99865;-68
2022/07/26 06:54:44;;;;;;;7.40;3.60;;;;;;;24.00;52.88;99567.38;102845;1275;109082;-70
2022/07/26 06:57:12;;;;;;;6.80;4.10;;;;;;;24.11;53.72;99575.80;103166;1276;138242;-69
2022/07/26 06:59:40;;;;;;;7.20;3.80;;;;;;;24.23;53.22;99581.37;103335;1277;95414;-68
2022/07/26 07:02:08;;;;;;;9.30;3.70;;;;;;;24.29;52.81;99593.66;103412;1275;138233;-68
2022/07/26 07:04:36;;;;;;;6.20;4.00;;;;;;;24.36;52.86;99601.89;103358;1276;99374;-69
2022/07/26 07:07:05;;;;;;;6.40;3.70;;;;;;;24.45;53.73;99591.88;103420;1277;107683;-69
2022/07/26 07:09:35;;;;;;;6.80;3.60;;;;;;;24.47;52.82;99571.87;103295;1276;139229;-69
2022/07/26 07:12:05;;;;;;;6.80;3.70;;;;;;;24.43;52.00;99572.66;103467;1276;95143;-69
2022/07/26 07:14:38;;;;;;;7.80;3.80;;;;;;;24.46;52.43;99589.12;103275;1277;137959;-68
2022/07/26 07:17:07;;;;;;;8.10;3.80;;;;;;;24.51;51.73;99602.94;103448;1276;99513;-69
2022/07/26 07:19:41;;;;;;;6.70;3.60;;;;;;;24.57;52.43;99603.56;103468;1276;107018;-70
2022/07/26 07:22:10;;;;;;;6.70;3.70;;;;;;;24.67;52.24;99587.59;104227;1276;139093;-69
2022/07/26 07:24:40;;;;;;;6.90;4.10;;;;;;;24.73;52.57;99580.85;103319;1276;95949;-68
2022/07/26 07:27:08;;;;;;;7.30;4.10;;;;;;;24.80;52.22;99581.10;107376;1275;138403;-69
2022/07/26 07:29:38;;;;;;;5.80;3.40;;;;;;;24.86;51.71;99576.30;103947;1277;98175;-68
2022/07/26 07:32:09;;;;;;;6.10;3.70;;;;;;;24.90;50.86;99563.43;103261;1277;138476;-70
2022/07/26 07:34:47;;;;;;;7.10;3.80;;;;;;;24.94;52.28;99560.48;103301;1276;95679;-69
2022/07/26 07:37:16;;;;;;;6.30;3.90;;;;;;;25.06;51.43;99569.27;103284;1277;95003;-69
2022/07/26 07:39:47;;;;;;;8.30;3.90;;;;;;;25.20;52.02;99579.59;103716;1275;138953;-69
2022/07/26 07:42:18;;;;;;;7.40;4.00;;;;;;;25.37;51.42;99571.93;107179;1276;98405;-70
2022/07/26 07:44:46;;;;;;;6.90;3.90;;;;;;;25.43;50.27;99575.73;107092;1276;137984;-70
2022/07/26 07:47:14;;;;;;;6.70;3.80;;;;;;;25.48;51.11;99577.76;103616;1275;95368;-68
2022/07/26 07:49:42;;;;;;;7.10;4.30;;;;;;;25.55;51.16;99571.79;103890;1276;95349;-69
2022/07/26 07:52:10;;;;;;;7.20;4.00;;;;;;;25.61;50.81;99576.91;103662;1274;137961;-68
2022/07/26 07:54:38;;;;;;;8.50;4.20;;;;;;;25.74;51.39;99582.23;103344;1275;99539;-69
2022/07/26 07:57:09;;;;;;;5.80;3.60;;;;;;;25.76;50.41;99580.52;103223;1277;137939;-71
2022/07/26 07:59:37;;;;;;;6.50;3.70;;;;;;;25.84;50.61;99583.88;103380;1275;96748;-69
2022/07/26 08:02:06;;;;;;;7.40;3.70;;;;;;;25.90;50.14;99586.20;103358;1276;138689;-69
2022/07/26 08:04:34;;;;;;;7.00;3.80;;;;;;;25.93;49.50;99585.13;103405;1276;109692;-69
2022/07/26 08:07:02;;;;;;;8.10;4.00;;;;;;;25.92;49.01;99585.39;103908;1276;99387;-69
2022/07/26 08:09:31;;;;;;;6.80;3.80;;;;;;;25.90;49.35;99584.52;103278;1277;137957;-69
2022/07/26 08:12:01;;;;;;;7.60;3.80;;;;;;;25.95;50.93;99578.08;104078;1276;95697;-69
2022/07/26 08:14:29;;;;;;;7.80;3.60;;;;;;;25.98;51.45;99571.52;103298;1275;138099;-70
2022/07/26 08:16:57;;;;;;;7.30;4.40;;;;;;;26.00;50.01;99570.58;103505;1277;109742;-70
2022/07/26 08:19:25;;;;;;;8.30;3.90;;;;;;;26.02;49.38;99566.72;103413;1276;99737;-69
2022/07/26 08:22:09;;;;;;;6.50;3.90;;;;;;;26.11;49.89;99566.95;103347;1277;137917;-70
2022/07/26 08:24:38;;;;;;;7.60;4.40;;;;;;;26.22;50.98;99568.70;103478;1276;95433;-70
2022/07/26 08:27:06;;;;;;;8.10;3.80;;;;;;;26.30;50.14;99566.55;103476;1277;138107;-70
2022/07/26 08:29:34;;;;;;;7.60;4.50;;;;;;;26.42;50.79;99567.46;103163;1274;109745;-70
2022/07/26 08:32:03;;;;;;;7.60;3.90;;;;;;;26.56;49.69;99569.66;103103;1276;138448;-70
2022/07/26 08:34:31;;;;;;;7.70;4.10;;;;;;;26.66;49.17;99574.14;103354;1275;107146;-70
2022/07/26 08:37:00;;;;;;;10.30;4.40;;;;;;;26.75;48.49;99572.02;103377;1274;95244;-70
2022/07/26 08:39:45;;;;;;;7.70;3.90;;;;;;;26.84;48.60;99573.90;103285;1274;138019;-70
2022/07/26 08:42:19;;;;;;;7.10;4.00;;;;;;;26.98;48.10;99575.19;103187;1277;109809;-70
2022/07/26 08:44:51;;;;;;;6.90;4.00;;;;;;;27.20;47.67;99579.00;103734;1274;138634;-69
2022/07/26 08:47:21;;;;;;;8.00;4.00;;;;;;;27.26;48.46;99586.35;103312;1275;108957;-69
2022/07/26 08:50:09;;;;;;;10.20;4.60;;;;;;;27.24;47.47;99590.59;103272;1274;138334;-69
2022/07/26 08:52:39;;;;;;;6.80;3.90;;;;;;;27.27;48.00;99595.59;103296;1275;95140;-69
2022/07/26 08:55:08;;;;;;;7.30;3.90;;;;;;;27.30;48.06;99592.81;103467;1276;109544;-69
2022/07/26 08:57:36;;;;;;;8.10;4.50;;;;;;;27.36;47.47;99593.98;103970;1277;138601;-69
2022/07/26 09:00:23;;;;;;;8.50;4.20;;;;;;;27.45;47.04;99593.01;103276;1274;108778;-69
2022/07/26 09:02:52;;;;;;;8.20;4.30;;;;;;;27.57;47.13;99592.80;103596;1274;138209;-69
2022/07/26 09:05:38;;;;;;;7.20;4.30;;;;;;;27.75;46.56;99595.19;103405;1276;96118;-68
2022/07/26 09:08:28;;;;;;;9.20;4.50;;;;;;;27.93;45.88;99601.58;103187;1276;138657;-69
2022/07/26 09:10:56;;;;;;;8.30;4.10;;;;;;;28.09;45.70;99602.37;103668;1277;99481;-69
2022/07/26 09:13:24;;;;;;;8.30;4.20;;;;;;;28.22;45.88;99607.00;103282;1275;108910;-70
2022/07/26 09:16:11;;;;;;;7.70;4.00;;;;;;;28.28;45.55;99614.86;103282;1277;138296;-71
2022/07/26 09:18:39;;;;;;;8.30;4.30;;;;;;;28.33;45.28;99615.70;103961;1275;95151;-69
2022/07/26 09:21:37;;;;;;;7.60;4.20;;;;;;;28.35;44.78;99617.87;102850;1277;138881;-69
2022/07/26 09:24:05;;;;;;;8.90;4.70;;;;;;;28.43;44.83;99618.41;102992;1274;99445;-69
2022/07/26 09:26:33;;;;;;;7.60;4.10;;;;;;;28.51;44.32;99622.93;102964;1274;138593;-69
2022/07/26 09:29:11;;;;;;;7.10;4.10;;;;;;;28.59;44.10;99626.16;103088;1275;96089;-69
2022/07/26 09:31:40;;;;;;;8.20;3.80;;;;;;;28.76;44.44;99625.06;103601;1275;95206;-69
2022/07/26 09:34:08;;;;;;;7.20;4.10;;;;;;;28.88;42.85;99629.20;103066;1276;137882;-69
2022/07/26 09:36:53;;;;;;;6.80;3.90;;;;;;;28.91;42.84;99633.85;103031;1277;99440;-69
2022/07/26 09:39:22;;;;;;;7.20;3.90;;;;;;;28.97;42.47;99638.60;103115;1277;137942;-68
2022/07/26 09:42:07;;;;;;;7.50;3.80;;;;;;;29.14;42.49;99642.28;103062;1277;96577;-69
2022/07/26 09:44:56;;;;;;;7.60;4.20;;;;;;;29.44;42.22;99646.45;102975;1276;138496;-70
2022/07/26 09:47:36;;;;;;;7.60;4.10;;;;;;;29.60;41.19;99645.23;102990;1277;110292;-69
2022/07/26 09:50:12;;;;;;;6.70;3.50;;;;;;;29.65;40.69;99647.81;102869;1274;138267;-72
2022/07/26 09:52:56;;;;;;;6.60;4.20;;;;;;;29.91;40.51;99642.59;103730;1274;108283;-70
2022/07/26 09:55:24;;;;;;;6.90;4.00;;;;;;;29.91;40.65;99642.60;103126;1276;95659;-70
2022/07/26 09:57:53;;;;;;;7.10;4.10;;;;;;;29.96;40.69;99643.95;102984;1276;137988;-70
2022/07/26 10:00:24;;;;;;;6.80;4.00;;;;;;;30.18;40.15;99644.27;103053;1277;109734;-70
2022/07/26 10:02:53;;;;;;;6.00;3.90;;;;;;;30.34;39.56;99650.04;102832;1274;138757;-68
2022/07/26 10:05:21;;;;;;;7.30;4.20;;;;;;;30.49;39.44;99653.70;103269;1274;108770;-69
2022/07/26 10:07:50;;;;;;;9.10;4.30;;;;;;;30.97;38.59;99653.91;102800;1275;138229;-68
2022/07/26 10:10:32;;;;;;;7.90;4.00;;;;;;;31.51;38.48;99652.29;103132;1277;95210;-68
2022/07/26 10:13:02;;;;;;;7.60;4.20;;;;;;;31.85;37.36;99657.94;103416;1277;109946;-69
2022/07/26 10:15:39;;;;;;;6.10;3.70;;;;;;;31.72;38.28;99654.64;103567;1275;138215;-69
2022/07/26 10:18:10;;;;;;;7.50;4.20;;;;;;;31.86;37.38;99659.64;103531;1276;108880;-69
2022/07/26 10:20:50;;;;;;;6.30;3.80;;;;;;;31.87;37.05;99669.60;103388;1274;138047;-69
2022/07/26 10:24:00;;;;;;;7.70;4.00;;;;;;;31.84;37.28;99671.78;103499;1274;96075;-69
2022/07/26 10:26:31;;;;;;;6.80;4.20;;;;;;;31.60;37.46;99674.52;103523;1274;138308;-69
2022/07/26 10:29:16;;;;;;;8.00;4.30;;;;;;;31.34;37.60;99676.30;103694;1274;99434;-69
2022/07/26 10:31:49;;;;;;;7.80;4.60;;;;;;;31.03;38.00;99680.95;103595;1274;107822;-70
2022/07/26 10:34:38;;;;;;;6.50;4.40;;;;;;;30.75;38.37;99687.92;103549;1277;95264;-69
2022/07/26 10:37:22;;;;;;;7.30;4.10;;;;;;;30.59;38.84;99691.20;103665;1276;95231;-68
2022/07/26 10:40:13;;;;;;;7.50;4.10;;;;;;;30.56;39.39;99686.08;103488;1276;138056;-68
2022/07/26 10:42:43;;;;;;;8.30;4.40;;;;;;;30.46;39.44;99682.98;103555;1275;99348;-68
2022/07/26 10:45:17;;;;;;;8.00;4.00;;;;;;;30.34;39.53;99679.16;103463;1277;137081;-68
2022/07/26 10:48:12;;;;;;;7.80;4.90;;;;;;;30.03;39.72;99680.89;104459;1275;96978;-68
2022/07/26 10:50:42;;;;;;;6.40;4.50;;;;;;;29.72;40.35;99682.34;103310;1276;137922;-69
2022/07/26 10:53:26;;;;;;;8.90;4.70;;;;;;;29.46;41.39;99687.34;104217;1275;109861;-67
2022/07/26 10:55:56;;;;;;;7.70;4.50;;;;;;;29.44;41.69;99688.41;103753;1275;138846;-69
2022/07/26 10:58:25;;;;;;;7.00;4.30;;;;;;;29.59;41.14;99697.42;103916;1276;108843;-68
2022/07/26 11:01:03;;;;;;;7.30;4.60;;;;;;;29.60;40.55;99702.18;103691;1276;95263;-68
2022/07/26 11:03:36;;;;;;;7.40;4.30;;;;;;;29.65;40.63;99708.05;103491;1276;137940;-69
2022/07/26 11:06:14;;;;;;;8.40;4.10;;;;;;;29.63;41.10;99715.55;103632;1277;109721;-69
2022/07/26 11:08:44;;;;;;;7.30;4.50;;;;;;;29.24;41.01;99724.18;103512;1276;138283;-68
2022/07/26 11:11:30;;;;;;;8.20;4.70;;;;;;;28.75;41.67;99731.52;103466;1275;108834;-69
2022/07/26 11:14:09;;;;;;;8.40;4.80;;;;;;;28.35;42.57;99739.48;103671;1274;138479;-68
2022/07/26 11:16:40;;;;;;;7.20;4.60;;;;;;;27.96;42.69;99739.98;103844;1275;95755;-68
2022/07/26 11:19:28;;;;;;;8.50;4.50;;;;;;;27.72;43.56;99741.88;103617;1274;108758;-68
2022/07/26 11:21:57;;;;;;;9.70;4.50;;;;;;;27.44;43.94;99742.79;103177;1274;139367;-69
2022/07/26 11:24:27;;;;;;;7.40;4.20;;;;;;;27.21;44.30;99747.84;103600;1277;109828;-69
2022/07/26 11:27:01;;;;;;;9.00;4.80;;;;;;;27.05;45.07;99754.06;103548;1274;138154;-68
2022/07/26 11:29:33;;;;;;;7.30;4.70;;;;;;;26.77;45.00;99753.32;103356;1274;95153;-68
2022/07/26 11:32:23;;;;;;;8.70;4.90;;;;;;;26.47;45.56;99759.16;103201;1274;138097;-67
2022/07/26 11:35:00;;;;;;;9.10;4.80;;;;;;;26.16;46.59;99760.50;103369;1277;99393;-69
2022/07/26 11:37:28;;;;;;;8.20;4.90;;;;;;;26.01;47.07;99766.90;103422;1275;112088;-69